Time;durP1;ratioP1;P1;durP2;ratioP2;P2;SDS_P1;SDS_P2;PMS_P1;PMS_P2;Temp;Humidity;BMP_temperature;BMP_pressure;BME280_temperature;BME280_humidity;BME280_pressure;Samples;Min_cycle;Max_cycle;Signal;HPM_P1;HPM_P2
2021/04/21 00:00:53;;;;;;;4.25;3.13;;;8.70;99.90;;;;;;5037421;28;20030;-77
2021/04/21 00:03:20;;;;;;;5.97;3.45;;;8.70;99.90;;;;;;5038629;28;20022;-77
2021/04/21 00:05:48;;;;;;;4.63;3.55;;;8.70;99.90;;;;;;5045499;28;20614;-77
2021/04/21 00:08:15;;;;;;;6.45;3.78;;;8.70;99.90;;;;;;5037032;28;20024;-77
2021/04/21 00:10:41;;;;;;;6.68;3.80;;;8.70;99.90;;;;;;5040979;28;20054;-78
2021/04/21 00:13:08;;;;;;;7.82;3.72;;;8.70;99.90;;;;;;5036119;28;20026;-78
2021/04/21 00:15:34;;;;;;;5.20;4.15;;;8.80;99.90;;;;;;5036096;28;20025;-77
2021/04/21 00:18:02;;;;;;;5.55;3.88;;;8.90;99.90;;;;;;5035485;28;20494;-77
2021/04/21 00:20:29;;;;;;;9.95;4.88;;;8.90;99.90;;;;;;5040602;28;20107;-77
2021/04/21 00:22:59;;;;;;;6.95;3.97;;;8.90;99.90;;;;;;5048560;28;20101;-78
2021/04/21 00:25:28;;;;;;;8.20;3.55;;;9.00;99.90;;;;;;5057345;28;20036;-79
2021/04/21 00:27:55;;;;;;;4.80;3.58;;;9.10;99.90;;;;;;5048954;28;20025;-78
2021/04/21 00:30:26;;;;;;;6.20;4.20;;;9.10;99.90;;;;;;5041022;28;20064;-78
2021/04/21 00:32:53;;;;;;;5.93;4.00;;;9.10;99.90;;;;;;5034164;28;20119;-78
2021/04/21 00:35:36;;;;;;;6.63;4.15;;;9.20;99.90;;;;;;5045833;28;20021;-77
2021/04/21 00:38:07;;;;;;;7.25;3.92;;;9.20;99.90;;;;;;5036275;28;20595;-78
2021/04/21 00:40:45;;;;;;;6.78;4.07;;;9.20;99.90;;;;;;5041151;28;20067;-77
2021/04/21 00:43:13;;;;;;;;;;;9.20;99.90;;;;;;5038601;28;20025;-78
2021/04/21 00:45:44;;;;;;;8.30;4.45;;;9.20;99.90;;;;;;5045258;28;19908;-78
2021/04/21 00:48:25;;;;;;;6.07;3.63;;;9.20;99.90;;;;;;5037917;28;20130;-78
2021/04/21 00:50:56;;;;;;;5.13;3.92;;;9.30;99.90;;;;;;5035687;28;20475;-78
2021/04/21 00:53:34;;;;;;;6.53;3.80;;;9.30;99.90;;;;;;5044755;28;20376;-78
2021/04/21 00:56:00;;;;;;;7.55;4.30;;;9.30;99.90;;;;;;5056651;28;20017;-78
2021/04/21 00:58:49;;;;;;;8.07;4.15;;;9.30;99.90;;;;;;5038232;28;20068;-78
2021/04/21 01:01:16;;;;;;;6.43;4.30;;;9.30;99.90;;;;;;5041770;28;20021;-78
2021/04/21 01:03:43;;;;;;;7.88;4.70;;;9.30;99.90;;;;;;5049019;28;20379;-78
2021/04/21 01:06:21;;;;;;;8.65;5.15;;;9.30;99.90;;;;;;5041531;28;20032;-78
2021/04/21 01:08:50;;;;;;;5.40;4.00;;;9.30;99.90;;;;;;5034889;28;20107;-77
2021/04/21 01:11:22;;;;;;;7.10;4.10;;;9.30;99.90;;;;;;5038976;28;20053;-78
2021/04/21 01:13:52;;;;;;;7.53;4.30;;;9.30;99.90;;;;;;5047952;28;20049;-78
2021/04/21 01:16:22;;;;;;;8.13;4.45;;;9.30;99.90;;;;;;5045207;28;20086;-78
2021/04/21 01:18:50;;;;;;;7.25;4.45;;;9.30;99.90;;;;;;5046142;28;20028;-78
2021/04/21 01:21:47;;;;;;;6.88;5.05;;;9.20;99.90;;;;;;5046936;28;20111;-78
2021/04/21 01:24:28;;;;;;;7.82;4.63;;;9.20;99.90;;;;;;5063194;28;20041;-77
2021/04/21 01:27:10;;;;;;;7.45;4.72;;;9.10;99.90;;;;;;5038857;28;20142;-77
2021/04/21 01:29:39;;;;;;;8.80;5.45;;;9.10;99.90;;;;;;5039054;28;20074;-76
2021/04/21 01:32:13;;;;;;;8.27;5.50;;;9.20;99.90;;;;;;5051319;28;20033;-77
2021/04/21 01:34:42;;;;;;;7.38;4.88;;;9.20;99.90;;;;;;5041846;28;20025;-77
2021/04/21 01:37:10;;;;;;;6.90;4.78;;;9.20;99.90;;;;;;5053297;28;20026;-78
2021/04/21 01:39:42;;;;;;;7.15;4.63;;;9.20;99.90;;;;;;5055095;28;20415;-78
2021/04/21 01:42:10;;;;;;;6.85;4.55;;;9.20;99.90;;;;;;5042846;28;20033;-78
2021/04/21 01:44:41;;;;;;;8.13;5.03;;;9.20;99.90;;;;;;5049467;28;20021;-78
2021/04/21 01:47:10;;;;;;;9.40;5.20;;;9.20;99.90;;;;;;5037371;28;20037;-78
2021/04/21 01:49:36;;;;;;;8.55;5.07;;;9.10;99.90;;;;;;5041633;28;20427;-78
2021/04/21 01:52:19;;;;;;;9.70;5.20;;;9.10;99.90;;;;;;5058206;28;20028;-77
2021/04/21 01:54:47;;;;;;;11.95;5.03;;;9.00;99.90;;;;;;5041336;28;20472;-78
2021/04/21 01:57:42;;;;;;;9.00;5.30;;;9.00;99.90;;;;;;5042517;28;20024;-78
2021/04/21 02:00:13;;;;;;;9.02;5.47;;;8.90;99.90;;;;;;5044798;28;20051;-78
2021/04/21 02:02:44;;;;;;;9.35;5.22;;;8.90;99.90;;;;;;5036773;28;20452;-79
2021/04/21 02:05:18;;;;;;;8.52;5.05;;;8.90;99.90;;;;;;5042402;28;20020;-79
2021/04/21 02:07:50;;;;;;;7.32;4.70;;;8.80;99.90;;;;;;5034843;28;20107;-80
2021/04/21 02:10:39;;;;;;;9.70;5.00;;;8.80;99.90;;;;;;5044170;28;20059;-79
2021/04/21 02:13:18;;;;;;;7.22;4.30;;;8.80;99.90;;;;;;5049570;28;20034;-78
2021/04/21 02:15:58;;;;;;;9.40;4.75;;;8.70;99.90;;;;;;5037952;28;20452;-79
2021/04/21 02:18:45;;;;;;;6.55;4.80;;;8.60;99.90;;;;;;5033142;28;20021;-79
2021/04/21 02:21:39;;;;;;;6.50;4.82;;;8.50;99.90;;;;;;5035863;28;20021;-77
2021/04/21 02:24:33;;;;;;;7.78;4.82;;;8.50;99.90;;;;;;5062506;28;20505;-77
2021/04/21 02:27:17;;;;;;;7.65;4.15;;;8.50;99.90;;;;;;5042678;28;20032;-79
2021/04/21 02:29:55;;;;;;;9.18;4.68;;;8.40;99.90;;;;;;5061822;28;20028;-79
2021/04/21 02:32:51;;;;;;;6.75;3.60;;;8.40;99.90;;;;;;5038266;28;20037;-79
2021/04/21 02:35:28;;;;;;;7.28;4.22;;;8.40;99.90;;;;;;5041781;28;20025;-79
2021/04/21 02:38:14;;;;;;;8.18;4.00;;;8.30;99.90;;;;;;5039957;28;20025;-77
2021/04/21 02:41:07;;;;;;;6.93;4.15;;;8.20;99.90;;;;;;5038224;28;20128;-78
2021/04/21 02:44:01;;;;;;;3.92;3.15;;;8.10;99.90;;;;;;5047147;28;20025;-79
2021/04/21 02:46:35;;;;;;;5.53;4.15;;;8.00;99.90;;;;;;5045325;28;20031;-78
2021/04/21 02:49:21;;;;;;;7.28;3.55;;;8.00;99.90;;;;;;5065727;28;20032;-79
2021/04/21 02:52:15;;;;;;;4.00;2.92;;;7.90;99.90;;;;;;5036623;28;20037;-79
2021/04/21 02:54:49;;;;;;;6.95;3.15;;;7.90;99.90;;;;;;5039199;28;20020;-79
2021/04/21 02:57:54;;;;;;;6.00;2.97;;;7.80;99.90;;;;;;5036449;28;20024;-79
2021/04/21 03:00:45;;;;;;;5.90;3.47;;;7.80;99.90;;;;;;5039301;28;20369;-79
2021/04/21 03:03:13;;;;;;;10.98;4.05;;;7.80;99.90;;;;;;5033018;28;20108;-79
2021/04/21 03:05:47;;;;;;;7.45;4.43;;;7.70;99.90;;;;;;5041459;28;20484;-79
2021/04/21 03:08:24;;;;;;;6.43;3.40;;;7.70;99.90;;;;;;5049277;28;20028;-78
2021/04/21 03:10:58;;;;;;;4.90;3.50;;;7.60;99.90;;;;;;5035543;28;20438;-78
2021/04/21 03:13:34;;;;;;;6.30;3.38;;;7.60;99.90;;;;;;5037606;28;20024;-78
2021/04/21 03:16:06;;;;;;;6.18;3.97;;;7.70;99.90;;;;;;5032778;28;20022;-78
2021/04/21 03:18:33;;;;;;;5.72;3.00;;;7.70;99.90;;;;;;5037160;28;20511;-78
2021/04/21 03:21:04;;;;;;;4.57;2.85;;;7.70;99.90;;;;;;5043613;28;20029;-78
2021/04/21 03:23:33;;;;;;;4.45;3.20;;;7.70;99.90;;;;;;5048341;28;21241;-78
2021/04/21 03:26:03;;;;;;;3.95;3.00;;;7.70;99.90;;;;;;5039828;28;20423;-78
2021/04/21 03:28:32;;;;;;;4.07;2.90;;;7.60;99.90;;;;;;5038272;28;20028;-78
2021/04/21 03:31:01;;;;;;;4.15;3.05;;;7.70;99.90;;;;;;5039627;28;20492;-78
2021/04/21 03:33:55;;;;;;;3.83;2.75;;;7.70;99.90;;;;;;5044597;28;20129;-78
2021/04/21 03:36:23;;;;;;;4.32;3.00;;;7.70;99.90;;;;;;5042688;28;20557;-78
2021/04/21 03:38:49;;;;;;;;;;;7.70;99.90;;;;;;5048335;28;20044;-79
2021/04/21 03:41:15;;;;;;;5.28;2.63;;;7.60;99.90;;;;;;5038304;28;20477;-79
2021/04/21 03:43:42;;;;;;;4.40;2.50;;;7.60;99.90;;;;;;5038309;28;20025;-79
2021/04/21 03:46:12;;;;;;;5.18;2.60;;;7.70;99.90;;;;;;5038596;28;20057;-79
2021/04/21 03:48:40;;;;;;;3.47;2.22;;;7.70;99.90;;;;;;5035866;28;20036;-78
2021/04/21 03:51:06;;;;;;;3.28;2.45;;;7.70;99.90;;;;;;5037992;28;20037;-78
2021/04/21 03:53:36;;;;;;;3.73;2.53;;;7.70;99.90;;;;;;5041628;28;20022;-78
2021/04/21 03:56:05;;;;;;;2.90;2.03;;;7.70;99.90;;;;;;5038116;28;20359;-78
2021/04/21 03:58:32;;;;;;;3.20;2.30;;;7.80;99.90;;;;;;5056289;28;20021;-78
2021/04/21 04:01:07;;;;;;;3.28;2.33;;;7.80;99.90;;;;;;5036394;28;20029;-78
2021/04/21 04:03:34;;;;;;;3.65;2.50;;;7.80;99.90;;;;;;5031071;28;20029;-78
2021/04/21 04:06:14;;;;;;;;;;;7.70;99.90;;;;;;5038857;28;20100;-79
2021/04/21 04:08:42;;;;;;;3.83;1.80;;;7.70;99.90;;;;;;5045593;28;19912;-80
2021/04/21 04:11:13;;;;;;;2.45;2.03;;;7.80;99.90;;;;;;5038506;28;20442;-80
2021/04/21 04:13:42;;;;;;;3.78;1.98;;;7.80;99.90;;;;;;5038805;28;20026;-78
2021/04/21 04:16:11;;;;;;;3.53;2.40;;;7.80;99.90;;;;;;5047131;28;20022;-80
2021/04/21 04:18:40;;;;;;;2.80;2.00;;;7.70;99.90;;;;;;5035251;28;20029;-78
2021/04/21 04:21:08;;;;;;;2.47;2.03;;;7.70;99.90;;;;;;5035613;28;20391;-78
2021/04/21 04:23:39;;;;;;;3.22;1.90;;;7.80;99.90;;;;;;5033466;28;20108;-78
2021/04/21 04:26:07;;;;;;;3.58;2.17;;;7.90;99.90;;;;;;5059016;28;20112;-79
2021/04/21 04:28:36;;;;;;;5.40;2.10;;;7.80;99.90;;;;;;5043120;28;20472;-78
2021/04/21 04:31:04;;;;;;;3.50;2.40;;;7.80;99.90;;;;;;5040495;28;20120;-78
2021/04/21 04:33:30;;;;;;;6.10;1.80;;;7.90;99.90;;;;;;5036140;28;20024;-78
2021/04/21 04:35:57;;;;;;;6.60;3.53;;;7.90;99.90;;;;;;5043556;28;20033;-78
2021/04/21 04:38:24;;;;;;;4.18;2.60;;;7.90;99.90;;;;;;5054309;28;20314;-79
2021/04/21 04:40:54;;;;;;;3.85;1.98;;;7.90;99.90;;;;;;5041721;28;20076;-78
2021/04/21 04:43:23;;;;;;;2.72;2.30;;;8.00;99.90;;;;;;5055598;28;20071;-81
2021/04/21 04:46:01;;;;;;;4.25;2.33;;;8.10;99.90;;;;;;5058330;28;20021;-78
2021/04/21 04:48:47;;;;;;;4.03;2.15;;;8.10;99.90;;;;;;5039665;28;20339;-79
2021/04/21 04:51:16;;;;;;;4.15;2.35;;;8.20;99.90;;;;;;5035607;28;20044;-79
2021/04/21 04:53:43;;;;;;;3.33;2.20;;;8.20;99.90;;;;;;5040219;28;20020;-79
2021/04/21 04:56:10;;;;;;;8.15;2.63;;;8.30;99.90;;;;;;5041971;28;20060;-78
2021/04/21 04:58:39;;;;;;;5.28;3.17;;;8.30;99.90;;;;;;5040830;28;20029;-78
2021/04/21 05:01:07;;;;;;;6.90;2.25;;;8.50;99.90;;;;;;5038014;28;20443;-77
2021/04/21 05:03:44;;;;;;;8.43;2.00;;;8.50;99.90;;;;;;5057936;28;20785;-79
2021/04/21 05:06:12;;;;;;;9.55;2.53;;;8.50;99.90;;;;;;5043271;28;20028;-80
2021/04/21 05:08:51;;;;;;;4.78;2.30;;;8.60;99.90;;;;;;5041477;28;20071;-80
2021/04/21 05:11:20;;;;;;;3.88;2.40;;;8.70;99.90;;;;;;5042933;28;20071;-78
2021/04/21 05:13:51;;;;;;;2.85;2.10;;;8.80;99.90;;;;;;5040812;28;20407;-78
2021/04/21 05:16:26;;;;;;;7.18;3.13;;;8.90;99.90;;;;;;5047528;28;20039;-79
2021/04/21 05:19:16;;;;;;;3.53;2.08;;;9.00;99.90;;;;;;5062253;28;20026;-79
2021/04/21 05:22:25;;;;;;;3.70;2.50;;;9.10;99.90;;;;;;5041056;28;20033;-80
2021/04/21 05:25:12;;;;;;;4.57;2.20;;;9.20;99.90;;;;;;5036841;28;20488;-79
2021/04/21 05:27:40;;;;;;;5.15;2.22;;;9.20;99.90;;;;;;5038177;28;20412;-79
2021/04/21 05:30:18;;;;;;;4.72;2.58;;;9.30;99.90;;;;;;5037525;28;20029;-79
2021/04/21 05:33:21;;;;;;;3.72;2.45;;;9.30;99.90;;;;;;5040301;28;20025;-78
2021/04/21 05:36:36;;;;;;;3.72;2.17;;;9.40;99.90;;;;;;5061871;28;20029;-79
2021/04/21 05:40:00;;;;;;;3.20;2.20;;;9.50;99.90;;;;;;5024004;28;20033;-78
2021/04/21 05:42:44;;;;;;;13.20;3.28;;;9.70;99.90;;;;;;4912750;29;20079;-79
2021/04/21 05:45:43;;;;;;;4.60;2.65;;;9.80;99.90;;;;;;4921600;29;20035;-79
2021/04/21 05:48:24;;;;;;;10.23;2.95;;;9.90;99.90;;;;;;4994853;28;20042;-80
2021/04/21 05:51:05;;;;;;;3.63;2.70;;;10.00;99.90;;;;;;5010941;28;20045;-81
2021/04/21 05:53:34;;;;;;;5.60;3.47;;;10.10;99.90;;;;;;5001062;28;20022;-79
2021/04/21 05:55:59;;;;;;;10.50;3.15;;;10.30;99.90;;;;;;4998414;28;20496;-81
2021/04/21 05:58:40;;;;;;;8.75;3.38;;;10.50;99.90;;;;;;4993770;28;20031;-78
2021/04/21 06:01:22;;;;;;;7.60;3.28;;;10.70;99.90;;;;;;4999455;28;20022;-78
2021/04/21 06:03:55;;;;;;;7.60;3.58;;;11.00;99.50;;;;;;5003106;28;20058;-80
2021/04/21 06:06:24;;;;;;;5.53;3.55;;;11.20;98.70;;;;;;4999530;28;20427;-79
2021/04/21 06:08:50;;;;;;;11.48;3.70;;;11.40;98.20;;;;;;5006375;28;20561;-81
2021/04/21 06:11:18;;;;;;;5.20;3.10;;;11.60;97.80;;;;;;5013398;28;20027;-81
2021/04/21 06:13:45;;;;;;;5.93;3.33;;;11.80;97.90;;;;;;5000801;28;20021;-81
2021/04/21 06:16:17;;;;;;;4.40;2.90;;;11.90;97.10;;;;;;4987634;28;20029;-81
2021/04/21 06:18:43;;;;;;;6.13;2.90;;;11.80;97.30;;;;;;4988980;28;20172;-79
2021/04/21 06:21:19;;;;;;;7.00;3.20;;;11.80;97.50;;;;;;4989477;28;20452;-79
2021/04/21 06:23:45;;;;;;;5.35;2.90;;;11.90;96.90;;;;;;4989338;28;20014;-81
2021/04/21 06:26:17;;;;;;;7.55;2.83;;;11.80;97.20;;;;;;5003764;28;20030;-78
2021/04/21 06:28:43;;;;;;;10.98;3.50;;;11.80;97.70;;;;;;4990019;28;20239;-80
2021/04/21 06:31:11;;;;;;;8.50;3.72;;;11.80;98.10;;;;;;4990646;28;20038;-81
2021/04/21 06:33:43;;;;;;;10.32;3.78;;;11.90;97.30;;;;;;4990049;28;20038;-80
2021/04/21 06:36:14;;;;;;;6.45;3.05;;;12.00;97.60;;;;;;4988581;28;20624;-80
2021/04/21 06:38:41;;;;;;;7.95;3.45;;;12.20;97.70;;;;;;4989566;28;20018;-80
2021/04/21 06:41:07;;;;;;;12.60;4.20;;;12.30;98.00;;;;;;5013243;28;20049;-80
2021/04/21 06:43:34;;;;;;;9.00;3.78;;;12.40;97.00;;;;;;5030330;28;20383;-81
2021/04/21 06:46:01;;;;;;;12.98;4.35;;;12.60;97.00;;;;;;5029076;28;20025;-86
2021/04/21 06:48:36;;;;;;;12.35;3.90;;;12.70;96.80;;;;;;5031299;28;20033;-86
2021/04/21 06:51:09;;;;;;;11.27;4.43;;;12.80;97.30;;;;;;5033873;28;20029;-81
2021/04/21 06:53:34;;;;;;;8.25;3.60;;;13.00;95.60;;;;;;5030945;28;20022;-77
2021/04/21 06:56:00;;;;;;;9.10;4.00;;;13.00;94.20;;;;;;5029221;28;20029;-80
2021/04/21 06:58:28;;;;;;;9.98;4.55;;;13.10;93.60;;;;;;5030150;28;20059;-80
2021/04/21 07:00:54;;;;;;;10.50;4.70;;;13.10;93.00;;;;;;5023459;28;20364;-79
2021/04/21 07:03:21;;;;;;;10.82;4.85;;;13.30;93.10;;;;;;5036409;28;20033;-77
2021/04/21 07:05:48;;;;;;;12.65;5.20;;;13.30;93.30;;;;;;5026069;28;20120;-77
2021/04/21 07:08:15;;;;;;;;;;;13.40;93.00;;;;;;5039006;28;20512;-79
2021/04/21 07:10:49;;;;;;;11.07;4.80;;;13.50;93.00;;;;;;5044407;28;19920;-77
2021/04/21 07:13:22;;;;;;;12.18;4.82;;;13.70;92.60;;;;;;5031039;28;20029;-77
2021/04/21 07:15:54;;;;;;;10.13;4.80;;;13.90;91.90;;;;;;5029177;28;20033;-76
2021/04/21 07:18:35;;;;;;;8.90;4.00;;;14.30;90.80;;;;;;5034273;28;20024;-77
2021/04/21 07:21:03;;;;;;;17.30;5.70;;;14.40;90.70;;;;;;5042473;28;20033;-78
2021/04/21 07:23:30;;;;;;;16.05;5.72;;;14.70;91.30;;;;;;5033597;28;20035;-77
2021/04/21 07:25:55;;;;;;;15.10;5.47;;;14.90;91.20;;;;;;5026243;28;20029;-77
2021/04/21 07:28:23;;;;;;;14.23;5.82;;;14.90;89.10;;;;;;5027382;28;20391;-77
2021/04/21 07:30:53;;;;;;;11.65;5.32;;;15.10;89.60;;;;;;5026637;28;20386;-77
2021/04/21 07:33:51;;;;;;;20.80;7.00;;;15.30;91.10;;;;;;5026654;28;20052;-77
2021/04/21 07:36:26;;;;;;;21.60;6.38;;;15.70;86.90;;;;;;4993415;28;20365;-77
2021/04/21 07:39:06;;;;;;;19.98;7.38;;;16.00;84.20;;;;;;5030443;28;20032;-77
2021/04/21 07:41:35;;;;;;;18.50;7.53;;;16.20;83.00;;;;;;5038592;28;20072;-77
2021/04/21 07:44:01;;;;;;;17.92;8.57;;;16.30;79.80;;;;;;5034296;28;20039;-78
2021/04/21 07:46:27;;;;;;;24.10;8.63;;;16.20;81.00;;;;;;5030469;28;20112;-77
2021/04/21 07:48:53;;;;;;;27.67;7.72;;;16.00;85.30;;;;;;5033677;28;20112;-77
2021/04/21 07:51:25;;;;;;;31.20;9.18;;;15.50;86.90;;;;;;5034104;28;20083;-77
2021/04/21 07:54:04;;;;;;;26.77;7.88;;;15.30;88.30;;;;;;5032542;28;20413;-77
2021/04/21 07:56:50;;;;;;;20.05;8.02;;;15.20;88.60;;;;;;5033620;28;20419;-78
2021/04/21 07:59:25;;;;;;;23.88;8.98;;;15.50;89.70;;;;;;5027922;28;20260;-78
2021/04/21 08:01:51;;;;;;;32.13;8.65;;;15.70;87.10;;;;;;5033531;28;20024;-78
2021/04/21 08:04:25;;;;;;;24.77;9.48;;;15.70;83.80;;;;;;5034129;28;20052;-79
2021/04/21 08:06:57;;;;;;;27.85;8.98;;;15.60;86.40;;;;;;5033167;28;20354;-78
2021/04/21 08:09:33;;;;;;;26.02;8.70;;;15.50;83.20;;;;;;5034206;28;20029;-77
2021/04/21 08:12:14;;;;;;;31.83;9.10;;;15.30;87.60;;;;;;5033652;28;20038;-77
2021/04/21 08:14:48;;;;;;;25.38;9.35;;;15.10;84.60;;;;;;5034621;28;20079;-78
2021/04/21 08:17:15;;;;;;;25.40;9.93;;;15.10;84.60;;;;;;5033873;28;20052;-78
2021/04/21 08:19:45;;;;;;;24.00;9.75;;;15.20;83.00;;;;;;5023579;28;21218;-78
2021/04/21 08:22:11;;;;;;;21.10;8.38;;;15.30;82.50;;;;;;5033071;28;20014;-78
2021/04/21 08:24:39;;;;;;;32.08;9.02;;;15.40;82.90;;;;;;5032491;28;20395;-78
2021/04/21 08:27:07;;;;;;;21.77;8.70;;;15.70;85.10;;;;;;5033210;28;20440;-77
2021/04/21 08:29:33;;;;;;;20.83;8.30;;;15.70;82.20;;;;;;5033151;28;20032;-79
2021/04/21 08:31:58;;;;;;;20.25;8.35;;;15.80;82.50;;;;;;5032827;28;20044;-78
2021/04/21 08:34:27;;;;;;;23.35;8.10;;;15.80;81.80;;;;;;5033051;28;20022;-78
2021/04/21 08:36:52;;;;;;;24.65;8.25;;;15.50;80.90;;;;;;5032941;28;20087;-78
2021/04/21 08:39:18;;;;;;;23.02;8.07;;;15.40;83.50;;;;;;5031778;28;20029;-77
2021/04/21 08:41:44;;;;;;;20.45;7.85;;;15.30;85.20;;;;;;5048074;28;20215;-78
2021/04/21 08:44:11;;;;;;;18.77;7.77;;;15.40;82.60;;;;;;5033472;28;20324;-79
2021/04/21 08:46:38;;;;;;;21.60;7.65;;;15.30;81.00;;;;;;5034260;28;20467;-78
2021/04/21 08:49:05;;;;;;;;;;;15.10;81.40;;;;;;5034068;28;20387;-78
2021/04/21 08:51:32;;;;;;;18.50;7.45;;;15.30;80.50;;;;;;5032613;28;19917;-78
2021/04/21 08:54:03;;;;;;;21.58;9.13;;;15.50;79.50;;;;;;5024556;28;20044;-77
2021/04/21 08:56:32;;;;;;;19.35;7.82;;;15.90;78.40;;;;;;5032638;28;20124;-79
2021/04/21 08:58:58;;;;;;;20.58;7.47;;;16.40;77.10;;;;;;5025517;28;20025;-78
2021/04/21 09:01:24;;;;;;;21.45;7.95;;;16.40;75.60;;;;;;5023157;28;20365;-81
2021/04/21 09:03:50;;;;;;;20.33;7.68;;;16.30;75.00;;;;;;5033339;28;20024;-78
2021/04/21 09:06:18;;;;;;;17.33;7.50;;;16.10;75.50;;;;;;5032986;28;20112;-79
2021/04/21 09:08:50;;;;;;;20.70;7.40;;;16.00;76.80;;;;;;5032735;28;20033;-78
2021/04/21 09:11:17;;;;;;;22.60;8.57;;;15.60;76.90;;;;;;5032276;28;20395;-80
2021/04/21 09:13:43;;;;;;;24.95;8.32;;;15.60;77.60;;;;;;5031402;28;20025;-79
2021/04/21 09:16:10;;;;;;;22.30;8.43;;;15.80;78.40;;;;;;5032254;28;20116;-79
2021/04/21 09:18:36;;;;;;;17.60;7.93;;;15.90;77.00;;;;;;5032159;28;20075;-78
2021/04/21 09:21:06;;;;;;;15.23;7.78;;;16.00;78.10;;;;;;5033460;28;20025;-78
2021/04/21 09:23:42;;;;;;;16.08;7.05;;;16.10;77.20;;;;;;5032708;28;20014;-76
2021/04/21 09:26:19;;;;;;;15.13;6.82;;;15.80;77.10;;;;;;5032718;28;20021;-78
2021/04/21 09:28:47;;;;;;;12.43;6.10;;;15.50;78.30;;;;;;5031005;28;20021;-78
2021/04/21 09:31:19;;;;;;;13.77;6.13;;;15.20;80.90;;;;;;5031677;28;20404;-79
2021/04/21 09:33:46;;;;;;;8.85;5.10;;;14.90;83.50;;;;;;5031196;28;20022;-78
2021/04/21 09:36:31;;;;;;;9.05;4.82;;;15.00;84.70;;;;;;5032281;28;20029;-78
2021/04/21 09:39:12;;;;;;;8.77;5.47;;;15.00;83.90;;;;;;5041994;28;20026;-78
2021/04/21 09:41:39;;;;;;;16.58;5.82;;;15.20;85.50;;;;;;5032484;28;20184;-79
2021/04/21 09:44:24;;;;;;;8.27;4.82;;;15.10;85.60;;;;;;5034478;28;20021;-78
2021/04/21 09:46:50;;;;;;;11.13;5.43;;;15.10;86.50;;;;;;5031092;28;20021;-79
2021/04/21 09:49:32;;;;;;;9.48;5.55;;;15.10;87.20;;;;;;5032634;28;20052;-79
2021/04/21 09:52:21;;;;;;;9.35;5.20;;;15.50;87.90;;;;;;5032521;28;20034;-80
2021/04/21 09:54:47;;;;;;;14.10;5.38;;;15.60;86.60;;;;;;5022873;28;20037;-78
2021/04/21 09:57:17;;;;;;;9.52;5.60;;;15.80;88.00;;;;;;5046850;28;20095;-78
2021/04/21 10:00:07;;;;;;;7.78;5.30;;;15.90;87.10;;;;;;5029874;28;20079;-78
2021/04/21 10:02:37;;;;;;;12.00;6.38;;;15.90;87.40;;;;;;5031910;28;20026;-77
2021/04/21 10:05:37;;;;;;;12.55;6.55;;;16.00;89.00;;;;;;5027984;28;20036;-77
2021/04/21 10:08:12;;;;;;;;;;;15.80;88.90;;;;;;5031451;28;20029;-76
2021/04/21 10:10:39;;;;;;;9.40;6.80;;;15.30;91.50;;;;;;5029238;28;20032;-77
2021/04/21 10:13:19;;;;;;;9.07;6.72;;;15.20;91.50;;;;;;5031979;28;20442;-77
2021/04/21 10:15:49;;;;;;;10.90;6.40;;;15.30;93.00;;;;;;5029452;28;20018;-78
2021/04/21 10:18:16;;;;;;;12.50;6.68;;;15.10;92.70;;;;;;5031927;28;20026;-79
2021/04/21 10:20:43;;;;;;;9.38;6.38;;;15.10;93.40;;;;;;5030608;28;20033;-77
2021/04/21 10:23:12;;;;;;;11.00;6.82;;;15.20;93.80;;;;;;5029590;28;20025;-78
2021/04/21 10:25:38;;;;;;;10.00;6.32;;;15.20;94.40;;;;;;5029677;28;20026;-77
2021/04/21 10:28:07;;;;;;;8.10;5.70;;;15.50;93.70;;;;;;5028750;28;20059;-78
2021/04/21 10:30:34;;;;;;;9.90;6.13;;;15.50;93.20;;;;;;5028401;28;20037;-79
2021/04/21 10:33:01;;;;;;;13.07;6.78;;;15.50;93.60;;;;;;5029092;28;20365;-79
2021/04/21 10:35:28;;;;;;;8.10;6.15;;;15.70;91.00;;;;;;5028985;28;20033;-79
2021/04/21 10:37:55;;;;;;;9.10;6.20;;;16.00;91.10;;;;;;5028740;28;20079;-78
2021/04/21 10:40:30;;;;;;;14.30;6.63;;;16.30;91.10;;;;;;5028598;28;20045;-78
2021/04/21 10:43:04;;;;;;;19.65;7.45;;;16.20;91.30;;;;;;5028574;28;20083;-80
2021/04/21 10:45:46;;;;;;;14.85;7.03;;;16.50;86.90;;;;;;5028515;28;20033;-78
2021/04/21 10:48:12;;;;;;;13.15;7.13;;;16.70;85.60;;;;;;5035298;28;20387;-79
2021/04/21 10:50:37;;;;;;;21.48;6.93;;;16.70;83.70;;;;;;5020459;28;20038;-78
2021/04/21 10:53:03;;;;;;;15.25;7.05;;;16.50;88.20;;;;;;5028854;28;20095;-77
2021/04/21 10:55:34;;;;;;;11.82;7.00;;;16.30;86.30;;;;;;5028516;28;20091;-78
2021/04/21 10:58:03;;;;;;;10.30;6.05;;;16.20;86.70;;;;;;5029316;28;20045;-78
2021/04/21 11:00:31;;;;;;;16.05;6.28;;;16.40;87.10;;;;;;5027040;28;20048;-79
2021/04/21 11:03:13;;;;;;;11.27;5.38;;;16.60;89.20;;;;;;5046286;28;20034;-77
2021/04/21 11:06:00;;;;;;;10.55;6.38;;;16.50;89.10;;;;;;5013961;28;20079;-80
2021/04/21 11:08:52;;;;;;;8.95;5.30;;;16.40;92.40;;;;;;5031483;28;20087;-77
2021/04/21 11:11:34;;;;;;;11.18;5.90;;;16.30;94.00;;;;;;5031118;28;20546;-78
2021/04/21 11:14:00;;;;;;;9.25;5.25;;;16.40;94.70;;;;;;5025034;28;20557;-78
2021/04/21 11:16:32;;;;;;;18.77;5.68;;;16.10;95.90;;;;;;5033207;28;20029;-77
2021/04/21 11:19:23;;;;;;;8.07;5.43;;;16.10;96.40;;;;;;5029702;28;20625;-78
2021/04/21 11:22:13;;;;;;;11.60;5.63;;;16.50;97.00;;;;;;5028127;28;20033;-79
2021/04/21 11:24:39;;;;;;;9.52;5.93;;;16.40;95.40;;;;;;5036305;28;20147;-79
2021/04/21 11:27:11;;;;;;;7.38;5.15;;;16.30;97.00;;;;;;5035456;28;20553;-77
2021/04/21 11:29:37;;;;;;;13.35;5.50;;;16.60;96.40;;;;;;5035359;28;20022;-77
2021/04/21 11:32:03;;;;;;;7.50;5.20;;;16.50;95.60;;;;;;5035609;28;20052;-76
2021/04/21 11:34:34;;;;;;;9.68;6.00;;;16.20;97.30;;;;;;5036468;28;20384;-78
2021/04/21 11:37:10;;;;;;;11.77;5.63;;;16.10;96.80;;;;;;5029972;28;20548;-77
2021/04/21 11:39:42;;;;;;;8.20;5.30;;;16.00;97.10;;;;;;5027280;28;20116;-76
2021/04/21 11:42:29;;;;;;;12.95;6.55;;;16.00;97.60;;;;;;5027109;28;20037;-79
2021/04/21 11:44:59;;;;;;;20.73;6.03;;;16.20;96.80;;;;;;5029651;28;20033;-79
2021/04/21 11:47:35;;;;;;;8.35;4.88;;;16.50;97.80;;;;;;5030391;28;20021;-78
2021/04/21 11:50:08;;;;;;;8.63;5.18;;;16.60;96.40;;;;;;5016799;28;20040;-78
2021/04/21 11:52:58;;;;;;;16.63;5.88;;;16.60;96.80;;;;;;5043343;28;20053;-77
2021/04/21 11:55:36;;;;;;;10.50;5.85;;;16.60;95.50;;;;;;5028015;28;20026;-78
2021/04/21 11:58:11;;;;;;;10.20;5.07;;;16.90;95.90;;;;;;5029301;28;20155;-81
2021/04/21 12:00:46;;;;;;;9.25;5.32;;;17.10;93.90;;;;;;5029606;28;20476;-78
2021/04/21 12:03:18;;;;;;;12.77;5.18;;;17.70;92.70;;;;;;5028619;28;20021;-77
2021/04/21 12:05:45;;;;;;;6.28;4.70;;;18.70;93.90;;;;;;5029675;28;20108;-80
2021/04/21 12:08:11;;;;;;;10.98;4.43;;;19.70;91.30;;;;;;5029668;28;20160;-78
2021/04/21 12:10:40;;;;;;;7.95;3.38;;;20.10;88.30;;;;;;5029517;28;20037;-78
2021/04/21 12:13:24;;;;;;;8.60;3.08;;;20.30;80.90;;;;;;5029484;28;20021;-75
2021/04/21 12:16:12;;;;;;;5.75;3.17;;;20.50;79.00;;;;;;5015066;28;20060;-79
2021/04/21 12:18:45;;;;;;;3.80;2.17;;;22.00;76.60;;;;;;5029802;28;20033;-78
2021/04/21 12:21:19;;;;;;;4.38;2.47;;;24.60;65.20;;;;;;5029497;28;20022;-79
2021/04/21 12:24:06;;;;;;;4.07;2.40;;;27.40;54.90;;;;;;5028442;28;20044;-83
2021/04/21 12:26:35;;;;;;;3.45;2.10;;;29.40;46.90;;;;;;5030018;28;20100;-77
2021/04/21 12:29:18;;;;;;;4.65;1.92;;;31.20;41.50;;;;;;5029642;28;20551;-81
2021/04/21 12:31:44;;;;;;;4.43;1.83;;;32.40;38.70;;;;;;5019964;28;20518;-80
2021/04/21 12:34:15;;;;;;;2.33;1.70;;;33.70;36.20;;;;;;5031301;28;20025;-80
2021/04/21 12:36:42;;;;;;;2.70;1.85;;;34.00;33.80;;;;;;5033195;28;20109;-80
2021/04/21 12:39:15;;;;;;;5.68;2.10;;;33.30;33.00;;;;;;5033217;28;20035;-80
2021/04/21 12:41:44;;;;;;;2.20;1.88;;;34.30;33.30;;;;;;5019440;28;20049;-82
2021/04/21 12:44:31;;;;;;;3.40;1.60;;;34.40;31.40;;;;;;5033222;28;20021;-81
2021/04/21 12:47:09;;;;;;;2.55;1.98;;;35.50;31.40;;;;;;5033108;28;20032;-79
2021/04/21 12:49:37;;;;;;;2.08;1.50;;;35.00;29.50;;;;;;5032885;28;20028;-80
2021/04/21 12:52:05;;;;;;;3.38;1.90;;;35.20;29.90;;;;;;5028584;28;20040;-80
2021/04/21 12:54:40;;;;;;;4.22;1.70;;;34.90;27.60;;;;;;5032455;28;20058;-79
2021/04/21 12:57:08;;;;;;;7.45;1.58;;;35.60;27.90;;;;;;5032409;28;20172;-81
2021/04/21 12:59:43;;;;;;;1.63;1.23;;;36.00;28.90;;;;;;5031550;28;20079;-78
2021/04/21 13:02:12;;;;;;;1.67;1.35;;;36.20;28.40;;;;;;5039097;28;20109;-82
2021/04/21 13:04:40;;;;;;;1.60;1.45;;;36.20;29.20;;;;;;5032815;28;20025;-81
2021/04/21 13:07:16;;;;;;;1.92;1.55;;;36.30;28.70;;;;;;5031946;28;20022;-80
2021/04/21 13:09:43;;;;;;;2.05;1.75;;;36.80;27.10;;;;;;5030073;28;20025;-79
2021/04/21 13:12:14;;;;;;;2.22;1.95;;;36.00;27.20;;;;;;5032668;28;20443;-80
2021/04/21 13:14:44;;;;;;;1.67;1.58;;;35.00;27.90;;;;;;5032584;28;20021;-77
2021/04/21 13:17:10;;;;;;;2.80;1.55;;;34.70;29.30;;;;;;5047673;28;20036;-78
2021/04/21 13:19:58;;;;;;;1.55;1.33;;;35.50;28.70;;;;;;5014608;28;20059;-80
2021/04/21 13:22:25;;;;;;;2.90;1.67;;;35.80;28.50;;;;;;5032159;28;20021;-80